sensor_id;sensor_type;location;lat;lon;timestamp;pressure;altitude;pressure_sealevel;temperature;humidity
45078;BME280;60508;42.622;25.416;2023-10-31T00:01:26;97012.88;;;18.02;53.32
45078;BME280;60508;42.622;25.416;2023-10-31T00:03:53;97010.50;;;17.95;52.94
45078;BME280;60508;42.622;25.416;2023-10-31T00:06:19;97012.50;;;17.79;52.97
45078;BME280;60508;42.622;25.416;2023-10-31T00:08:55;97012.31;;;17.70;53.27
45078;BME280;60508;42.622;25.416;2023-10-31T00:11:22;97014.69;;;17.77;53.30
45078;BME280;60508;42.622;25.416;2023-10-31T00:13:48;96997.94;;;17.65;53.79
45078;BME280;60508;42.622;25.416;2023-10-31T00:16:14;96996.63;;;17.62;53.99
45078;BME280;60508;42.622;25.416;2023-10-31T00:18:41;96995.59;;;17.53;54.34
45078;BME280;60508;42.622;25.416;2023-10-31T00:21:07;97006.69;;;17.57;54.21
45078;BME280;60508;42.622;25.416;2023-10-31T00:23:47;96991.56;;;17.45;54.14
45078;BME280;60508;42.622;25.416;2023-10-31T00:26:14;96995.06;;;17.06;54.92
45078;BME280;60508;42.622;25.416;2023-10-31T00:28:48;96985.50;;;17.19;54.64
45078;BME280;60508;42.622;25.416;2023-10-31T00:31:16;96986.56;;;17.18;54.79
45078;BME280;60508;42.622;25.416;2023-10-31T00:33:43;96986.53;;;17.28;54.93
45078;BME280;60508;42.622;25.416;2023-10-31T00:36:09;96979.47;;;17.27;55.24
45078;BME280;60508;42.622;25.416;2023-10-31T00:38:36;96978.88;;;17.36;55.13
45078;BME280;60508;42.622;25.416;2023-10-31T00:41:02;96978.81;;;17.41;55.02
45078;BME280;60508;42.622;25.416;2023-10-31T00:43:28;96977.03;;;17.26;55.15
45078;BME280;60508;42.622;25.416;2023-10-31T00:45:55;96969.63;;;17.37;54.81
45078;BME280;60508;42.622;25.416;2023-10-31T00:48:21;96974.59;;;17.24;55.21
45078;BME280;60508;42.622;25.416;2023-10-31T00:50:47;96966.81;;;17.12;55.27
45078;BME280;60508;42.622;25.416;2023-10-31T00:53:14;96964.34;;;17.16;55.90
45078;BME280;60508;42.622;25.416;2023-10-31T00:55:48;96961.72;;;17.01;56.17
45078;BME280;60508;42.622;25.416;2023-10-31T00:58:15;96966.28;;;17.05;56.42
45078;BME280;60508;42.622;25.416;2023-10-31T01:00:42;96963.38;;;16.96;56.66
45078;BME280;60508;42.622;25.416;2023-10-31T01:03:28;96960.28;;;17.13;56.30
45078;BME280;60508;42.622;25.416;2023-10-31T01:05:55;96963.59;;;17.00;56.25
45078;BME280;60508;42.622;25.416;2023-10-31T01:08:21;96956.69;;;17.23;55.96
45078;BME280;60508;42.622;25.416;2023-10-31T01:11:08;96952.81;;;17.29;55.45
45078;BME280;60508;42.622;25.416;2023-10-31T01:13:45;96953.50;;;17.11;56.61
45078;BME280;60508;42.622;25.416;2023-10-31T01:16:12;96947.16;;;16.81;57.39
45078;BME280;60508;42.622;25.416;2023-10-31T01:18:38;96949.88;;;16.81;57.88
45078;BME280;60508;42.622;25.416;2023-10-31T01:21:15;96955.22;;;16.96;57.45
45078;BME280;60508;42.622;25.416;2023-10-31T01:23:41;96954.28;;;16.67;58.02
45078;BME280;60508;42.622;25.416;2023-10-31T01:26:08;96951.50;;;16.77;57.40
45078;BME280;60508;42.622;25.416;2023-10-31T01:28:34;96952.28;;;16.77;58.36
45078;BME280;60508;42.622;25.416;2023-10-31T01:31:01;96950.00;;;17.05;57.74
45078;BME280;60508;42.622;25.416;2023-10-31T01:33:38;96954.22;;;16.77;58.34
45078;BME280;60508;42.622;25.416;2023-10-31T01:36:04;96951.78;;;16.75;58.04
45078;BME280;60508;42.622;25.416;2023-10-31T01:38:31;96946.63;;;16.74;58.08
45078;BME280;60508;42.622;25.416;2023-10-31T01:40:57;96942.56;;;16.71;58.18
45078;BME280;60508;42.622;25.416;2023-10-31T01:45:57;96941.81;;;16.60;58.63
45078;BME280;60508;42.622;25.416;2023-10-31T01:48:33;96946.41;;;16.60;58.25
45078;BME280;60508;42.622;25.416;2023-10-31T01:51:01;96934.13;;;16.78;57.44
45078;BME280;60508;42.622;25.416;2023-10-31T01:53:29;96939.00;;;16.81;57.03
45078;BME280;60508;42.622;25.416;2023-10-31T01:55:56;96936.31;;;16.71;55.70
45078;BME280;60508;42.622;25.416;2023-10-31T01:58:25;96937.44;;;16.65;55.62
45078;BME280;60508;42.622;25.416;2023-10-31T02:01:04;96934.22;;;16.57;56.16
45078;BME280;60508;42.622;25.416;2023-10-31T02:03:30;96935.31;;;16.56;57.45
45078;BME280;60508;42.622;25.416;2023-10-31T02:05:56;96926.69;;;16.44;57.92
45078;BME280;60508;42.622;25.416;2023-10-31T02:08:32;96929.41;;;16.44;57.42
45078;BME280;60508;42.622;25.416;2023-10-31T02:10:58;96936.16;;;16.47;57.21
45078;BME280;60508;42.622;25.416;2023-10-31T02:13:25;96929.69;;;16.37;57.51
45078;BME280;60508;42.622;25.416;2023-10-31T02:15:59;96928.09;;;16.31;58.11
45078;BME280;60508;42.622;25.416;2023-10-31T02:18:26;96930.13;;;15.84;59.97
45078;BME280;60508;42.622;25.416;2023-10-31T02:20:52;96929.28;;;15.84;60.07
45078;BME280;60508;42.622;25.416;2023-10-31T02:23:29;96926.00;;;16.02;59.79
45078;BME280;60508;42.622;25.416;2023-10-31T02:25:57;96927.91;;;15.97;59.32
45078;BME280;60508;42.622;25.416;2023-10-31T02:28:23;96899.50;;;14.96;62.50
45078;BME280;60508;42.622;25.416;2023-10-31T02:31:04;96930.94;;;15.18;62.32
45078;BME280;60508;42.622;25.416;2023-10-31T02:33:30;96928.47;;;15.01;63.52
45078;BME280;60508;42.622;25.416;2023-10-31T02:35:57;96921.66;;;14.83;64.95
45078;BME280;60508;42.622;25.416;2023-10-31T02:38:32;96924.69;;;15.38;63.77
45078;BME280;60508;42.622;25.416;2023-10-31T02:40:59;96920.09;;;15.80;62.37
45078;BME280;60508;42.622;25.416;2023-10-31T02:43:25;96921.44;;;15.93;61.56
45078;BME280;60508;42.622;25.416;2023-10-31T02:45:53;96932.25;;;16.03;59.30
45078;BME280;60508;42.622;25.416;2023-10-31T02:48:21;96933.88;;;15.88;60.40
45078;BME280;60508;42.622;25.416;2023-10-31T02:50:47;96917.63;;;15.94;60.73
45078;BME280;60508;42.622;25.416;2023-10-31T02:53:13;96936.31;;;15.90;61.21
45078;BME280;60508;42.622;25.416;2023-10-31T02:55:40;96928.72;;;15.92;60.65
45078;BME280;60508;42.622;25.416;2023-10-31T02:58:06;96934.47;;;15.39;61.77
45078;BME280;60508;42.622;25.416;2023-10-31T03:00:43;96931.09;;;14.75;64.77
45078;BME280;60508;42.622;25.416;2023-10-31T03:03:09;96928.72;;;14.94;64.95
45078;BME280;60508;42.622;25.416;2023-10-31T03:05:36;96931.16;;;15.06;64.02
45078;BME280;60508;42.622;25.416;2023-10-31T03:08:12;96933.28;;;14.78;64.60
45078;BME280;60508;42.622;25.416;2023-10-31T03:10:41;96938.69;;;14.84;64.23
45078;BME280;60508;42.622;25.416;2023-10-31T03:13:07;96937.28;;;14.66;65.44
45078;BME280;60508;42.622;25.416;2023-10-31T03:15:34;96925.66;;;14.65;65.91
45078;BME280;60508;42.622;25.416;2023-10-31T03:18:10;96929.78;;;14.88;65.66
45078;BME280;60508;42.622;25.416;2023-10-31T03:20:36;96921.16;;;15.27;64.60
45078;BME280;60508;42.622;25.416;2023-10-31T03:23:03;96923.06;;;15.58;63.12
45078;BME280;60508;42.622;25.416;2023-10-31T03:25:30;96919.28;;;15.84;62.63
45078;BME280;60508;42.622;25.416;2023-10-31T03:27:58;96908.16;;;15.81;62.12
45078;BME280;60508;42.622;25.416;2023-10-31T03:30:24;96917.88;;;15.92;60.62
45078;BME280;60508;42.622;25.416;2023-10-31T03:33:01;96913.88;;;15.79;60.87
45078;BME280;60508;42.622;25.416;2023-10-31T03:35:30;96911.97;;;15.80;59.97
45078;BME280;60508;42.622;25.416;2023-10-31T03:37:57;96911.13;;;15.90;61.58
45078;BME280;60508;42.622;25.416;2023-10-31T03:40:23;96910.59;;;15.93;60.26
45078;BME280;60508;42.622;25.416;2023-10-31T03:42:59;96904.38;;;15.77;61.10
45078;BME280;60508;42.622;25.416;2023-10-31T03:45:26;96902.47;;;15.57;60.95
45078;BME280;60508;42.622;25.416;2023-10-31T03:47:53;96898.69;;;15.52;62.16
45078;BME280;60508;42.622;25.416;2023-10-31T03:50:27;96903.88;;;15.44;62.86
45078;BME280;60508;42.622;25.416;2023-10-31T03:52:53;96897.88;;;15.62;62.18
45078;BME280;60508;42.622;25.416;2023-10-31T03:55:19;96897.88;;;15.42;61.35
45078;BME280;60508;42.622;25.416;2023-10-31T03:57:57;96896.00;;;15.42;60.79
45078;BME280;60508;42.622;25.416;2023-10-31T04:00:24;96901.94;;;15.55;61.97
45078;BME280;60508;42.622;25.416;2023-10-31T04:02:53;96908.44;;;15.69;61.03
45078;BME280;60508;42.622;25.416;2023-10-31T04:05:19;96905.47;;;15.55;60.89
45078;BME280;60508;42.622;25.416;2023-10-31T04:07:56;96898.16;;;15.50;62.14
45078;BME280;60508;42.622;25.416;2023-10-31T04:10:22;96909.00;;;15.50;61.85
45078;BME280;60508;42.622;25.416;2023-10-31T04:12:48;96902.47;;;15.51;61.81
45078;BME280;60508;42.622;25.416;2023-10-31T04:15:15;96905.22;;;15.36;62.27
45078;BME280;60508;42.622;25.416;2023-10-31T04:17:41;96904.13;;;15.32;62.54
45078;BME280;60508;42.622;25.416;2023-10-31T04:20:15;96896.53;;;15.19;62.06
45078;BME280;60508;42.622;25.416;2023-10-31T04:22:41;96901.97;;;15.13;62.57
45078;BME280;60508;42.622;25.416;2023-10-31T04:25:09;96899.22;;;14.93;64.86
45078;BME280;60508;42.622;25.416;2023-10-31T04:27:35;96898.97;;;15.05;63.98
45078;BME280;60508;42.622;25.416;2023-10-31T04:30:10;96904.06;;;14.81;64.90
45078;BME280;60508;42.622;25.416;2023-10-31T04:32:37;96904.78;;;14.50;66.53
45078;BME280;60508;42.622;25.416;2023-10-31T04:35:03;96903.16;;;14.49;66.42
45078;BME280;60508;42.622;25.416;2023-10-31T04:37:29;96907.03;;;14.74;66.23
45078;BME280;60508;42.622;25.416;2023-10-31T04:39:56;96892.78;;;14.31;67.69
45078;BME280;60508;42.622;25.416;2023-10-31T04:42:22;96905.31;;;13.89;69.14
45078;BME280;60508;42.622;25.416;2023-10-31T04:44:49;96871.28;;;13.93;68.88
45078;BME280;60508;42.622;25.416;2023-10-31T04:47:24;96906.91;;;14.38;67.74
45078;BME280;60508;42.622;25.416;2023-10-31T04:49:50;96894.59;;;14.78;66.61
45078;BME280;60508;42.622;25.416;2023-10-31T04:52:17;96907.34;;;14.83;66.13
45078;BME280;60508;42.622;25.416;2023-10-31T04:54:46;96907.81;;;14.64;66.32
45078;BME280;60508;42.622;25.416;2023-10-31T04:57:13;96911.09;;;14.82;66.53
45078;BME280;60508;42.622;25.416;2023-10-31T04:59:49;96909.75;;;14.79;66.28
45078;BME280;60508;42.622;25.416;2023-10-31T05:02:16;96906.81;;;14.91;66.30
45078;BME280;60508;42.622;25.416;2023-10-31T05:04:42;96906.53;;;15.13;64.90
45078;BME280;60508;42.622;25.416;2023-10-31T05:07:09;96907.03;;;14.74;64.93
45078;BME280;60508;42.622;25.416;2023-10-31T05:09:35;96912.16;;;14.65;65.05
45078;BME280;60508;42.622;25.416;2023-10-31T05:12:12;96914.38;;;14.94;65.43
45078;BME280;60508;42.622;25.416;2023-10-31T05:14:39;96907.34;;;14.93;65.05
45078;BME280;60508;42.622;25.416;2023-10-31T05:17:09;96908.41;;;14.76;65.36
45078;BME280;60508;42.622;25.416;2023-10-31T05:19:35;96904.91;;;14.91;65.63
45078;BME280;60508;42.622;25.416;2023-10-31T05:22:03;96902.75;;;15.24;65.05
45078;BME280;60508;42.622;25.416;2023-10-31T05:24:29;96903.06;;;15.28;64.77
45078;BME280;60508;42.622;25.416;2023-10-31T05:26:56;96900.06;;;15.55;64.34
45078;BME280;60508;42.622;25.416;2023-10-31T05:29:32;96904.91;;;15.74;63.84
45078;BME280;60508;42.622;25.416;2023-10-31T05:31:58;96902.47;;;15.87;63.69
45078;BME280;60508;42.622;25.416;2023-10-31T05:34:24;96909.50;;;15.99;63.44
45078;BME280;60508;42.622;25.416;2023-10-31T05:36:51;96908.41;;;15.95;63.39
45078;BME280;60508;42.622;25.416;2023-10-31T05:39:17;96909.41;;;16.19;62.57
45078;BME280;60508;42.622;25.416;2023-10-31T05:41:54;96902.59;;;16.32;62.07
45078;BME280;60508;42.622;25.416;2023-10-31T05:44:20;96904.50;;;16.32;61.80
45078;BME280;60508;42.622;25.416;2023-10-31T05:46:47;96905.53;;;16.46;61.33
45078;BME280;60508;42.622;25.416;2023-10-31T05:49:13;96911.44;;;16.58;61.46
45078;BME280;60508;42.622;25.416;2023-10-31T05:51:53;96906.72;;;16.79;61.33
45078;BME280;60508;42.622;25.416;2023-10-31T05:54:19;96910.25;;;16.80;60.47
45078;BME280;60508;42.622;25.416;2023-10-31T05:56:46;96907.53;;;16.80;59.30
45078;BME280;60508;42.622;25.416;2023-10-31T05:59:22;96913.78;;;16.75;59.07
45078;BME280;60508;42.622;25.416;2023-10-31T06:01:49;96901.63;;;16.68;59.23
45078;BME280;60508;42.622;25.416;2023-10-31T06:04:16;96915.56;;;16.46;60.11
45078;BME280;60508;42.622;25.416;2023-10-31T06:06:43;96913.47;;;16.27;60.90
45078;BME280;60508;42.622;25.416;2023-10-31T06:09:16;96918.84;;;16.42;60.40
45078;BME280;60508;42.622;25.416;2023-10-31T06:11:43;96917.28;;;16.16;61.20
45078;BME280;60508;42.622;25.416;2023-10-31T06:14:10;96913.47;;;16.27;61.11
45078;BME280;60508;42.622;25.416;2023-10-31T06:16:44;96915.03;;;16.43;60.82
45078;BME280;60508;42.622;25.416;2023-10-31T06:19:10;96920.41;;;16.54;60.62
45078;BME280;60508;42.622;25.416;2023-10-31T06:21:37;96913.84;;;16.60;60.49
45078;BME280;60508;42.622;25.416;2023-10-31T06:24:13;96912.72;;;16.76;60.02
45078;BME280;60508;42.622;25.416;2023-10-31T06:26:39;96912.94;;;16.80;60.25
45078;BME280;60508;42.622;25.416;2023-10-31T06:29:06;96917.84;;;16.78;59.95
45078;BME280;60508;42.622;25.416;2023-10-31T06:31:32;96911.88;;;16.81;60.09
45078;BME280;60508;42.622;25.416;2023-10-31T06:34:08;96913.75;;;16.86;60.10
45078;BME280;60508;42.622;25.416;2023-10-31T06:36:35;96910.78;;;16.77;60.09
45078;BME280;60508;42.622;25.416;2023-10-31T06:39:01;96916.91;;;16.48;60.82
45078;BME280;60508;42.622;25.416;2023-10-31T06:41:28;96912.72;;;16.06;62.49
45078;BME280;60508;42.622;25.416;2023-10-31T06:43:54;96923.34;;;15.82;63.10
45078;BME280;60508;42.622;25.416;2023-10-31T06:46:20;96917.34;;;15.69;63.83
45078;BME280;60508;42.622;25.416;2023-10-31T06:48:57;96920.56;;;16.13;62.35
45078;BME280;60508;42.622;25.416;2023-10-31T06:51:24;96920.28;;;16.14;62.23
45078;BME280;60508;42.622;25.416;2023-10-31T06:53:50;96916.19;;;16.27;62.72
45078;BME280;60508;42.622;25.416;2023-10-31T06:56:17;96924.91;;;16.14;63.43
45078;BME280;60508;42.622;25.416;2023-10-31T06:58:44;96930.34;;;16.09;62.61
45078;BME280;60508;42.622;25.416;2023-10-31T07:01:10;96932.25;;;16.03;63.66
45078;BME280;60508;42.622;25.416;2023-10-31T07:03:37;96920.28;;;16.14;63.18
45078;BME280;60508;42.622;25.416;2023-10-31T07:06:03;96926.25;;;16.21;62.90
45078;BME280;60508;42.622;25.416;2023-10-31T07:08:30;96929.75;;;16.22;62.51
45078;BME280;60508;42.622;25.416;2023-10-31T07:11:03;96928.59;;;16.43;62.41
45078;BME280;60508;42.622;25.416;2023-10-31T07:13:30;96923.13;;;16.49;62.50
45078;BME280;60508;42.622;25.416;2023-10-31T07:15:56;96927.16;;;16.56;62.70
45078;BME280;60508;42.622;25.416;2023-10-31T07:18:33;96917.38;;;16.66;62.53
45078;BME280;60508;42.622;25.416;2023-10-31T07:20:59;96921.41;;;16.73;62.13
45078;BME280;60508;42.622;25.416;2023-10-31T07:23:26;96917.03;;;16.77;62.18
45078;BME280;60508;42.622;25.416;2023-10-31T07:26:00;96911.88;;;16.81;62.55
45078;BME280;60508;42.622;25.416;2023-10-31T07:28:27;96910.44;;;16.94;62.54
45078;BME280;60508;42.622;25.416;2023-10-31T07:30:53;96910.72;;;16.97;61.98
45078;BME280;60508;42.622;25.416;2023-10-31T07:33:31;96913.59;;;17.11;61.87
45078;BME280;60508;42.622;25.416;2023-10-31T07:35:57;96910.22;;;17.30;60.92
45078;BME280;60508;42.622;25.416;2023-10-31T07:38:24;96910.63;;;17.42;60.91
45078;BME280;60508;42.622;25.416;2023-10-31T07:40:50;96917.31;;;17.60;60.56
45078;BME280;60508;42.622;25.416;2023-10-31T07:43:17;96896.19;;;17.81;59.69
45078;BME280;60508;42.622;25.416;2023-10-31T07:45:43;96900.25;;;18.08;59.00
45078;BME280;60508;42.622;25.416;2023-10-31T07:48:10;96902.81;;;18.23;58.46
45078;BME280;60508;42.622;25.416;2023-10-31T07:50:47;96899.31;;;18.42;58.55
45078;BME280;60508;42.622;25.416;2023-10-31T07:53:14;96896.19;;;18.73;59.30
45078;BME280;60508;42.622;25.416;2023-10-31T07:55:40;96900.00;;;18.96;59.02
45078;BME280;60508;42.622;25.416;2023-10-31T07:58:07;96892.06;;;19.00;58.52
45078;BME280;60508;42.622;25.416;2023-10-31T08:00:35;96885.19;;;19.02;57.87
45078;BME280;60508;42.622;25.416;2023-10-31T08:03:02;96882.03;;;19.14;58.08
45078;BME280;60508;42.622;25.416;2023-10-31T08:05:28;96885.53;;;19.33;57.81
45078;BME280;60508;42.622;25.416;2023-10-31T08:07:55;96886.38;;;19.48;56.29
45078;BME280;60508;42.622;25.416;2023-10-31T08:10:22;96887.78;;;19.45;56.93
45078;BME280;60508;42.622;25.416;2023-10-31T08:12:59;96874.84;;;19.37;56.01
45078;BME280;60508;42.622;25.416;2023-10-31T08:15:25;96874.59;;;19.66;56.58
45078;BME280;60508;42.622;25.416;2023-10-31T08:17:51;96874.38;;;19.96;55.64
45078;BME280;60508;42.622;25.416;2023-10-31T08:20:18;96878.63;;;19.55;55.85
45078;BME280;60508;42.622;25.416;2023-10-31T08:22:44;96873.28;;;20.11;55.86
45078;BME280;60508;42.622;25.416;2023-10-31T08:25:11;96869.28;;;20.58;53.39
45078;BME280;60508;42.622;25.416;2023-10-31T08:27:38;96868.56;;;20.81;52.96
45078;BME280;60508;42.622;25.416;2023-10-31T08:30:04;96866.97;;;21.02;52.16
45078;BME280;60508;42.622;25.416;2023-10-31T08:32:44;96865.13;;;21.34;51.91
45078;BME280;60508;42.622;25.416;2023-10-31T08:35:10;96862.66;;;21.46;49.77
45078;BME280;60508;42.622;25.416;2023-10-31T08:37:36;96860.47;;;21.12;50.68
45078;BME280;60508;42.622;25.416;2023-10-31T08:40:12;96855.69;;;21.40;48.90
45078;BME280;60508;42.622;25.416;2023-10-31T08:42:39;96857.28;;;21.64;48.85
45078;BME280;60508;42.622;25.416;2023-10-31T08:45:05;96849.34;;;21.31;48.99
45078;BME280;60508;42.622;25.416;2023-10-31T08:47:32;96839.88;;;21.82;49.06
45078;BME280;60508;42.622;25.416;2023-10-31T08:50:09;96840.03;;;21.86;46.94
45078;BME280;60508;42.622;25.416;2023-10-31T08:52:37;96825.50;;;21.77;47.74
45078;BME280;60508;42.622;25.416;2023-10-31T08:55:04;96824.78;;;22.34;47.57
45078;BME280;60508;42.622;25.416;2023-10-31T08:57:30;96817.25;;;22.74;45.60
45078;BME280;60508;42.622;25.416;2023-10-31T08:59:56;96819.53;;;23.16;45.62
45078;BME280;60508;42.622;25.416;2023-10-31T09:02:23;96814.44;;;23.62;45.29
45078;BME280;60508;42.622;25.416;2023-10-31T09:04:49;96802.84;;;23.47;44.16
45078;BME280;60508;42.622;25.416;2023-10-31T09:07:17;96798.44;;;23.08;44.49
45078;BME280;60508;42.622;25.416;2023-10-31T09:09:43;96788.38;;;23.29;43.35
45078;BME280;60508;42.622;25.416;2023-10-31T09:12:19;96787.47;;;23.64;42.83
45078;BME280;60508;42.622;25.416;2023-10-31T09:14:46;96782.88;;;23.38;42.68
45078;BME280;60508;42.622;25.416;2023-10-31T09:17:12;96772.41;;;23.87;43.15
45078;BME280;60508;42.622;25.416;2023-10-31T09:19:49;96774.13;;;24.52;41.65
45078;BME280;60508;42.622;25.416;2023-10-31T09:22:15;96765.84;;;24.60;41.21
45078;BME280;60508;42.622;25.416;2023-10-31T09:24:42;96772.31;;;24.05;41.55
45078;BME280;60508;42.622;25.416;2023-10-31T09:27:13;96763.69;;;24.87;40.66
45078;BME280;60508;42.622;25.416;2023-10-31T09:29:40;96760.69;;;25.47;39.80
45078;BME280;60508;42.622;25.416;2023-10-31T09:32:06;96748.78;;;25.92;38.78
45078;BME280;60508;42.622;25.416;2023-10-31T09:34:41;96763.56;;;26.37;37.38
45078;BME280;60508;42.622;25.416;2023-10-31T09:37:07;96754.16;;;25.88;37.84
45078;BME280;60508;42.622;25.416;2023-10-31T09:39:33;96738.47;;;26.14;37.32
45078;BME280;60508;42.622;25.416;2023-10-31T09:42:00;96729.63;;;26.73;36.76
45078;BME280;60508;42.622;25.416;2023-10-31T09:44:26;96732.59;;;27.25;36.06
45078;BME280;60508;42.622;25.416;2023-10-31T09:46:52;96730.78;;;27.77;35.21
45078;BME280;60508;42.622;25.416;2023-10-31T09:49:19;96733.03;;;27.11;34.84
45078;BME280;60508;42.622;25.416;2023-10-31T09:51:55;96734.69;;;27.00;35.90
45078;BME280;60508;42.622;25.416;2023-10-31T09:54:21;96723.50;;;26.52;35.44
45078;BME280;60508;42.622;25.416;2023-10-31T09:56:49;96728.84;;;26.73;35.01
45078;BME280;60508;42.622;25.416;2023-10-31T09:59:15;96719.47;;;26.49;36.23
45078;BME280;60508;42.622;25.416;2023-10-31T10:01:42;96703.31;;;27.04;35.03
45078;BME280;60508;42.622;25.416;2023-10-31T10:04:09;96711.38;;;27.41;34.95
45078;BME280;60508;42.622;25.416;2023-10-31T10:06:39;96699.28;;;27.30;34.86
45078;BME280;60508;42.622;25.416;2023-10-31T10:09:16;96698.09;;;27.63;33.69
45078;BME280;60508;42.622;25.416;2023-10-31T10:11:43;96685.44;;;27.94;33.51
45078;BME280;60508;42.622;25.416;2023-10-31T10:14:11;96691.84;;;27.02;34.98
45078;BME280;60508;42.622;25.416;2023-10-31T10:16:47;96683.59;;;27.66;33.27
45078;BME280;60508;42.622;25.416;2023-10-31T10:19:16;96675.91;;;27.91;33.45
45078;BME280;60508;42.622;25.416;2023-10-31T10:21:46;96670.53;;;28.34;32.89
45078;BME280;60508;42.622;25.416;2023-10-31T10:24:13;96668.03;;;28.64;32.31
45078;BME280;60508;42.622;25.416;2023-10-31T10:26:39;96670.66;;;28.76;31.61
45078;BME280;60508;42.622;25.416;2023-10-31T10:29:16;96670.72;;;28.80;31.95
45078;BME280;60508;42.622;25.416;2023-10-31T10:31:43;96671.06;;;28.20;32.72
45078;BME280;60508;42.622;25.416;2023-10-31T10:34:14;96670.41;;;28.46;32.41
45078;BME280;60508;42.622;25.416;2023-10-31T10:36:52;96662.13;;;28.85;31.60
45078;BME280;60508;42.622;25.416;2023-10-31T10:39:20;96668.44;;;28.86;31.34
45078;BME280;60508;42.622;25.416;2023-10-31T10:41:55;96661.72;;;28.64;32.44
45078;BME280;60508;42.622;25.416;2023-10-31T10:46:55;96652.16;;;29.23;31.13
45078;BME280;60508;42.622;25.416;2023-10-31T10:49:34;96655.31;;;29.72;30.69
45078;BME280;60508;42.622;25.416;2023-10-31T10:57:50;96629.97;;;29.96;29.66
45078;BME280;60508;42.622;25.416;2023-10-31T11:00:31;96617.03;;;30.04;29.29
45078;BME280;60508;42.622;25.416;2023-10-31T11:02:58;96620.63;;;29.28;30.17
45078;BME280;60508;42.622;25.416;2023-10-31T11:05:25;96609.47;;;29.24;30.34
45078;BME280;60508;42.622;25.416;2023-10-31T11:08:02;96610.69;;;29.04;30.26
45078;BME280;60508;42.622;25.416;2023-10-31T11:10:30;96599.19;;;29.02;30.48
45078;BME280;60508;42.622;25.416;2023-10-31T11:12:56;96598.75;;;29.73;29.87
45078;BME280;60508;42.622;25.416;2023-10-31T11:15:23;96581.13;;;30.15;29.14
45078;BME280;60508;42.622;25.416;2023-10-31T11:18:01;96592.28;;;30.18;28.59
45078;BME280;60508;42.622;25.416;2023-10-31T11:20:29;96583.13;;;30.48;28.44
45078;BME280;60508;42.622;25.416;2023-10-31T11:22:55;96576.16;;;30.62;27.92
45078;BME280;60508;42.622;25.416;2023-10-31T11:25:35;96585.13;;;30.89;27.92
45078;BME280;60508;42.622;25.416;2023-10-31T11:28:11;96587.91;;;31.30;27.30
45078;BME280;60508;42.622;25.416;2023-10-31T11:30:38;96580.31;;;31.23;26.92
45078;BME280;60508;42.622;25.416;2023-10-31T11:33:06;96576.53;;;31.49;26.53
45078;BME280;60508;42.622;25.416;2023-10-31T11:35:38;96580.84;;;31.43;26.94
45078;BME280;60508;42.622;25.416;2023-10-31T11:38:05;96576.03;;;30.88;27.07
45078;BME280;60508;42.622;25.416;2023-10-31T11:40:33;96578.06;;;31.40;26.46
45078;BME280;60508;42.622;25.416;2023-10-31T11:43:02;96574.56;;;31.02;27.23
45078;BME280;60508;42.622;25.416;2023-10-31T11:48:06;96577.44;;;31.61;26.28
45078;BME280;60508;42.622;25.416;2023-10-31T11:50:34;96573.34;;;32.10;25.56
45078;BME280;60508;42.622;25.416;2023-10-31T11:53:14;96565.16;;;32.50;25.26
45078;BME280;60508;42.622;25.416;2023-10-31T11:55:43;96562.00;;;32.62;25.24
45078;BME280;60508;42.622;25.416;2023-10-31T12:00:46;96556.50;;;32.69;24.75
45078;BME280;60508;42.622;25.416;2023-10-31T12:03:19;96569.63;;;32.94;24.77
45078;BME280;60508;42.622;25.416;2023-10-31T12:05:56;96540.19;;;32.68;25.16
45078;BME280;60508;42.622;25.416;2023-10-31T12:08:29;96553.72;;;31.78;25.54
45078;BME280;60508;42.622;25.416;2023-10-31T12:11:13;96540.28;;;30.08;27.55
45078;BME280;60508;42.622;25.416;2023-10-31T12:13:50;96544.19;;;31.20;26.25
45078;BME280;60508;42.622;25.416;2023-10-31T12:16:17;96538.19;;;31.70;26.25
45078;BME280;60508;42.622;25.416;2023-10-31T12:18:55;96550.13;;;31.18;25.93
45078;BME280;60508;42.622;25.416;2023-10-31T12:21:41;96540.59;;;31.71;25.87
45078;BME280;60508;42.622;25.416;2023-10-31T12:24:19;96530.97;;;32.42;25.14
45078;BME280;60508;42.622;25.416;2023-10-31T12:26:45;96538.47;;;32.24;24.67
45078;BME280;60508;42.622;25.416;2023-10-31T12:29:19;96536.56;;;31.58;25.68
45078;BME280;60508;42.622;25.416;2023-10-31T12:31:49;96530.84;;;32.06;25.24
45078;BME280;60508;42.622;25.416;2023-10-31T12:34:18;96525.81;;;32.37;24.82
45078;BME280;60508;42.622;25.416;2023-10-31T12:36:46;96534.63;;;32.71;24.51
45078;BME280;60508;42.622;25.416;2023-10-31T12:39:13;96525.50;;;32.74;24.25
45078;BME280;60508;42.622;25.416;2023-10-31T12:41:41;96527.09;;;32.86;24.69
45078;BME280;60508;42.622;25.416;2023-10-31T12:44:08;96523.06;;;32.62;25.02
45078;BME280;60508;42.622;25.416;2023-10-31T12:46:46;96523.31;;;32.10;25.20
45078;BME280;60508;42.622;25.416;2023-10-31T12:49:19;96511.72;;;31.87;25.91
45078;BME280;60508;42.622;25.416;2023-10-31T12:51:59;96517.53;;;31.60;26.15
45078;BME280;60508;42.622;25.416;2023-10-31T12:54:32;96506.53;;;31.19;26.48
45078;BME280;60508;42.622;25.416;2023-10-31T12:57:03;96502.69;;;30.86;27.05
45078;BME280;60508;42.622;25.416;2023-10-31T12:59:31;96511.31;;;30.73;27.29
45078;BME280;60508;42.622;25.416;2023-10-31T13:02:08;96501.53;;;30.46;27.65
45078;BME280;60508;42.622;25.416;2023-10-31T13:04:34;96492.47;;;30.15;27.73
45078;BME280;60508;42.622;25.416;2023-10-31T13:07:07;96483.69;;;29.75;28.47
45078;BME280;60508;42.622;25.416;2023-10-31T13:09:34;96501.16;;;29.22;28.95
45078;BME280;60508;42.622;25.416;2023-10-31T13:12:02;96493.47;;;28.62;29.63
45078;BME280;60508;42.622;25.416;2023-10-31T13:14:29;96508.78;;;28.36;30.03
45078;BME280;60508;42.622;25.416;2023-10-31T13:16:56;96500.09;;;28.15;30.79